Waite Hill, Ohio
Current Conditions -  °F | °C
As of 10:45 PM on Wednesday 22 Oct 2014 (Local Time) from KCGF Reporting Station
Broken Clouds Broken Clouds  
Wind Chill: 52°   Ceiling: 3000
Heat Index: 52°   Visibility: 20mi
Dew Point: 48°   Wind: 12mph
Humidity: 88%   Direction: 10°N
Pressure: 30.24"   Gusts: NA
Location:  41.6111°N, 81.3789°W
Report Text: KCGF 230245Z 01010KT 20SM BKN030 BKN080 11/09 A3024
Loading
Personal Weather Stations






























Interactive Weather Map
Tropical Storm Tracking
New forecast layout! Learn more

10-Day Weather Forecast

Advertisements
Track Severe Weather on mobile